createdAt,value
2023-01-19T00:01:42.993Z,13.63
2023-01-19T00:04:10.973Z,9.82
2023-01-19T00:06:38.901Z,8.85
2023-01-19T00:09:08.852Z,10.30
2023-01-19T00:11:36.818Z,8.30
2023-01-19T00:14:05.084Z,9.55
2023-01-19T00:16:34.423Z,10.85
2023-01-19T00:19:02.527Z,8.32
2023-01-19T00:21:30.473Z,9.85
2023-01-19T00:24:00.615Z,11.90
2023-01-19T00:26:28.588Z,9.15
2023-01-19T00:28:57.278Z,9.18
2023-01-19T00:31:25.227Z,12.90
2023-01-19T00:33:54.559Z,7.70
2023-01-19T00:36:22.515Z,9.52
2023-01-19T00:38:50.426Z,11.95
2023-01-19T00:41:18.588Z,14.43
2023-01-19T00:43:46.509Z,11.35
2023-01-19T00:46:14.484Z,9.25
2023-01-19T00:48:42.418Z,10.32
2023-01-19T00:51:11.698Z,12.98
2023-01-19T00:53:39.623Z,9.30
2023-01-19T00:56:08.398Z,7.47
2023-01-19T00:58:38.772Z,10.85
2023-01-19T01:01:06.999Z,11.07
2023-01-19T01:03:35.012Z,8.60
2023-01-19T01:06:03.635Z,7.70
2023-01-19T01:08:33.216Z,9.27
2023-01-19T01:11:01.348Z,11.40
2023-01-19T01:13:29.774Z,8.57
2023-01-19T01:15:58.248Z,9.07
2023-01-19T01:18:26.642Z,10.25
2023-01-19T01:20:56.255Z,9.98
2023-01-19T01:23:24.294Z,10.70
2023-01-19T01:25:53.707Z,13.45
2023-01-19T01:28:21.703Z,13.38
2023-01-19T01:30:53.703Z,8.32
2023-01-19T01:33:41.158Z,11.25
2023-01-19T01:36:12.928Z,7.90
2023-01-19T01:38:41.303Z,8.30
2023-01-19T01:41:10.825Z,9.82
2023-01-19T01:43:48.112Z,9.07
2023-01-19T01:46:17.895Z,9.27
2023-01-19T01:48:52.173Z,12.50
2023-01-19T01:51:26.787Z,12.68
2023-01-19T01:54:07.698Z,8.63
2023-01-19T01:56:41.177Z,10.68
2023-01-19T01:59:11.551Z,10.50
2023-01-19T02:01:57.703Z,8.90
2023-01-19T02:04:26.116Z,5.82
2023-01-19T02:07:11.467Z,6.85
2023-01-19T02:09:56.725Z,5.78
2023-01-19T02:12:43.826Z,8.73
2023-01-19T02:15:18.862Z,6.25
2023-01-19T02:17:47.592Z,5.43
2023-01-19T02:20:16.425Z,6.90
2023-01-19T02:22:49.287Z,4.88
2023-01-19T02:25:20.340Z,3.67
2023-01-19T02:27:48.962Z,4.13
2023-01-19T02:30:18.562Z,6.70
2023-01-19T02:32:46.852Z,5.05
2023-01-19T02:35:16.168Z,7.35
2023-01-19T02:37:45.279Z,5.65
2023-01-19T02:40:16.186Z,10.13
2023-01-19T02:42:49.440Z,6.88
2023-01-19T02:45:22.753Z,7.65
2023-01-19T02:47:52.417Z,6.55
2023-01-19T02:50:43.532Z,6.43
2023-01-19T02:53:34.587Z,6.18
2023-01-19T02:56:27.839Z,6.32
2023-01-19T02:59:01.710Z,8.13
2023-01-19T03:01:41.220Z,7.72
2023-01-19T03:04:16.256Z,4.05
2023-01-19T03:06:48.011Z,7.63
2023-01-19T03:09:26.497Z,6.47
2023-01-19T03:12:03.400Z,7.35
2023-01-19T03:14:38.299Z,6.85
2023-01-19T03:17:08.447Z,5.55
2023-01-19T03:19:40.202Z,4.72
2023-01-19T03:22:12.052Z,5.32
2023-01-19T03:24:43.229Z,7.97
2023-01-19T03:27:14.886Z,7.45
2023-01-19T03:29:51.769Z,5.80
2023-01-19T03:32:22.498Z,4.90
2023-01-19T03:34:52.379Z,12.18
2023-01-19T03:37:21.473Z,8.13
2023-01-19T03:39:49.510Z,8.23
2023-01-19T03:42:18.866Z,6.55
2023-01-19T03:44:50.602Z,10.10
2023-01-19T03:47:20.099Z,5.65
2023-01-19T03:49:50.685Z,3.33
2023-01-19T03:52:18.704Z,6.82
2023-01-19T03:54:46.647Z,5.43
2023-01-19T03:57:14.585Z,4.45
2023-01-19T03:59:42.515Z,7.10
2023-01-19T04:02:12.123Z,6.13
2023-01-19T04:04:40.080Z,5.25
2023-01-19T04:07:11.704Z,6.65
2023-01-19T04:09:40.078Z,5.10
2023-01-19T04:12:10.778Z,5.63
2023-01-19T04:14:38.706Z,8.70
2023-01-19T04:17:06.651Z,6.53
2023-01-19T04:19:36.134Z,6.50
2023-01-19T04:22:04.782Z,7.30
2023-01-19T04:24:32.741Z,10.32
2023-01-19T04:27:00.747Z,12.68
2023-01-19T04:29:28.662Z,12.55
2023-01-19T04:31:56.558Z,13.15
2023-01-19T04:34:24.493Z,9.05
2023-01-19T04:36:55.888Z,10.13
2023-01-19T04:39:24.036Z,5.80
2023-01-19T04:41:55.366Z,7.78
2023-01-19T04:44:23.282Z,6.95
2023-01-19T04:46:52.141Z,7.85
2023-01-19T04:49:20.117Z,6.75
2023-01-19T04:51:48.121Z,8.13
2023-01-19T04:54:17.401Z,9.77
2023-01-19T04:56:45.391Z,11.27
2023-01-19T04:59:13.715Z,9.43
2023-01-19T05:01:41.694Z,15.57
2023-01-19T05:04:11.683Z,16.85
2023-01-19T05:06:39.729Z,15.75
2023-01-19T05:09:09.065Z,9.43
2023-01-19T05:11:38.430Z,6.88
2023-01-19T05:14:06.789Z,6.45
2023-01-19T05:16:35.525Z,5.75
2023-01-19T05:19:03.519Z,5.53
2023-01-19T05:21:31.586Z,6.47
2023-01-19T05:23:59.506Z,4.25
2023-01-19T05:26:27.519Z,3.65
2023-01-19T05:28:56.756Z,6.53
2023-01-19T05:31:24.954Z,7.32
2023-01-19T05:33:52.950Z,9.45
2023-01-19T05:36:20.864Z,8.30
2023-01-19T05:38:49.123Z,6.22
2023-01-19T05:41:17.618Z,6.20
2023-01-19T05:43:45.631Z,7.43
2023-01-19T05:46:15.364Z,6.05
2023-01-19T05:48:43.352Z,5.78
2023-01-19T05:51:11.293Z,6.57
2023-01-19T05:53:39.214Z,6.90
2023-01-19T05:56:09.186Z,9.80
2023-01-19T05:58:39.293Z,10.38
2023-01-19T06:01:09.305Z,13.88
2023-01-19T06:03:41.262Z,19.20
2023-01-19T06:06:09.241Z,15.05
2023-01-19T06:08:37.224Z,18.20
2023-01-19T06:11:07.393Z,17.38
2023-01-19T06:13:35.442Z,19.63
2023-01-19T06:16:06.094Z,13.90
2023-01-19T06:18:34.189Z,18.58
2023-01-19T06:21:06.385Z,20.30
2023-01-19T06:23:35.602Z,24.75
2023-01-19T06:26:04.281Z,17.08
2023-01-19T06:28:32.319Z,16.92
2023-01-19T06:31:00.342Z,20.75
2023-01-19T06:33:28.837Z,14.00
2023-01-19T06:35:57.313Z,18.92
2023-01-19T06:38:26.753Z,19.92
2023-01-19T06:40:58.397Z,20.23
2023-01-19T06:43:27.561Z,21.17
2023-01-19T06:45:56.064Z,16.05
2023-01-19T06:48:25.768Z,21.10
2023-01-19T06:50:53.713Z,21.27
2023-01-19T06:53:22.387Z,22.33
2023-01-19T06:55:51.637Z,18.35
2023-01-19T06:58:19.918Z,22.05
2023-01-19T07:00:48.915Z,22.05
2023-01-19T07:03:21.356Z,18.27
2023-01-19T07:05:52.642Z,20.60
2023-01-19T07:08:20.630Z,16.58
2023-01-19T07:11:25.037Z,22.10
2023-01-19T07:13:39.975Z,15.18
2023-01-19T07:16:09.463Z,17.08
2023-01-19T07:18:38.567Z,18.30
2023-01-19T07:21:07.645Z,19.83
2023-01-19T07:23:35.755Z,21.13
2023-01-19T07:26:03.718Z,16.55
2023-01-19T07:28:32.909Z,17.65
2023-01-19T07:31:02.311Z,22.88
2023-01-19T07:33:30.664Z,20.45
2023-01-19T07:35:58.965Z,18.85
2023-01-19T07:38:27.018Z,16.38
2023-01-19T07:41:01.580Z,23.25
2023-01-19T07:43:29.598Z,60.13
2023-01-19T07:45:57.975Z,45.40
2023-01-19T07:48:27.564Z,44.03
2023-01-19T07:50:59.855Z,45.00
2023-01-19T07:53:27.961Z,75.95
2023-01-19T07:55:57.695Z,57.33
2023-01-19T07:58:26.421Z,16.83
2023-01-19T08:00:54.717Z,12.65
2023-01-19T08:03:23.108Z,17.30
2023-01-19T08:05:53.247Z,16.33
2023-01-19T08:08:21.480Z,13.43
2023-01-19T08:10:51.544Z,14.23
2023-01-19T08:13:19.570Z,14.35
2023-01-19T08:15:51.921Z,17.15
2023-01-19T08:18:20.352Z,14.13
2023-01-19T08:20:48.281Z,19.40
2023-01-19T08:23:18.079Z,15.02
2023-01-19T08:25:46.193Z,15.88
2023-01-19T08:28:17.007Z,15.90
2023-01-19T08:30:45.650Z,16.65
2023-01-19T08:33:14.325Z,16.30
2023-01-19T08:35:44.208Z,14.27
2023-01-19T08:38:12.295Z,15.20
2023-01-19T08:40:42.507Z,16.25
2023-01-19T08:43:12.826Z,15.48
2023-01-19T08:45:48.060Z,15.60
2023-01-19T08:48:17.153Z,12.63
2023-01-19T08:50:47.449Z,14.68
2023-01-19T08:53:15.638Z,17.90
2023-01-19T08:55:44.923Z,20.98
2023-01-19T08:58:12.951Z,17.58
2023-01-19T09:00:41.006Z,17.58
2023-01-19T09:03:13.704Z,17.20
2023-01-19T09:05:41.899Z,19.83
2023-01-19T09:08:11.788Z,24.00
2023-01-19T09:10:50.826Z,22.73
2023-01-19T09:13:19.827Z,19.48
2023-01-19T09:15:47.996Z,20.88
2023-01-19T09:18:18.041Z,22.52
2023-01-19T09:20:48.130Z,21.73
2023-01-19T09:23:17.795Z,22.55
2023-01-19T09:25:47.981Z,16.27
2023-01-19T09:28:18.139Z,19.17
2023-01-19T09:30:46.310Z,15.35
2023-01-19T09:33:16.214Z,13.70
2023-01-19T09:35:45.576Z,14.75
2023-01-19T09:38:15.260Z,12.52
2023-01-19T09:40:44.373Z,18.05
2023-01-19T09:43:24.230Z,29.75
2023-01-19T09:45:56.851Z,24.65
2023-01-19T09:48:37.223Z,29.98
2023-01-19T09:51:08.489Z,28.35
2023-01-19T09:53:50.452Z,26.80
2023-01-19T09:56:21.106Z,27.85
2023-01-19T09:58:51.941Z,28.15
2023-01-19T10:01:38.467Z,27.55
2023-01-19T10:04:35.420Z,23.80
2023-01-19T10:07:27.337Z,20.42
2023-01-19T10:10:10.159Z,25.50
2023-01-19T10:12:45.985Z,39.53
2023-01-19T10:15:24.844Z,34.72
2023-01-19T10:18:05.121Z,29.17
2023-01-19T10:20:39.850Z,24.92
2023-01-19T10:23:22.769Z,31.85
2023-01-19T10:25:51.189Z,28.17
2023-01-19T10:28:23.219Z,31.58
2023-01-19T10:30:54.767Z,31.58
2023-01-19T10:33:22.875Z,29.88
2023-01-19T10:35:51.006Z,21.50
2023-01-19T10:38:22.084Z,24.10
2023-01-19T10:40:58.381Z,20.02
2023-01-19T10:43:41.532Z,16.10
2023-01-19T10:46:20.524Z,15.00
2023-01-19T10:48:51.319Z,19.73
2023-01-19T10:51:19.898Z,20.58
2023-01-19T10:53:59.779Z,21.38
2023-01-19T10:56:31.974Z,22.20
2023-01-19T10:59:01.831Z,23.88
2023-01-19T11:01:35.927Z,26.55
2023-01-19T11:04:21.785Z,23.15
2023-01-19T11:06:49.705Z,24.02
2023-01-19T11:09:19.184Z,29.90
2023-01-19T11:11:49.777Z,32.50
2023-01-19T11:14:21.425Z,30.60
2023-01-19T11:16:53.925Z,30.95
2023-01-19T11:19:28.845Z,28.17
2023-01-19T11:22:12.871Z,25.38
2023-01-19T11:24:41.080Z,19.75
2023-01-19T11:27:09.114Z,20.05
2023-01-19T11:29:39.205Z,22.70
2023-01-19T11:32:22.274Z,19.48
2023-01-19T11:34:51.781Z,20.90
2023-01-19T11:37:39.567Z,23.08
2023-01-19T11:40:10.235Z,23.17
2023-01-19T11:42:38.465Z,27.35
2023-01-19T11:45:13.435Z,21.75
2023-01-19T11:47:45.414Z,22.63
2023-01-19T11:50:22.778Z,16.38
2023-01-19T11:52:59.323Z,20.13
2023-01-19T11:55:34.743Z,25.52
2023-01-19T11:58:05.195Z,23.08
2023-01-19T12:00:37.591Z,28.13
2023-01-19T12:03:13.551Z,27.77
2023-01-19T12:05:47.986Z,25.23
2023-01-19T12:08:21.055Z,25.75
2023-01-19T12:10:51.165Z,26.75
2023-01-19T12:13:22.127Z,25.20
2023-01-19T12:15:53.975Z,28.63
2023-01-19T12:18:27.331Z,30.73
2023-01-19T12:20:58.636Z,29.38
2023-01-19T12:23:48.937Z,27.45
2023-01-19T12:26:28.048Z,25.65
2023-01-19T12:29:01.022Z,24.75
2023-01-19T12:31:29.232Z,23.00
2023-01-19T12:34:39.795Z,22.17
2023-01-19T12:37:28.787Z,19.23
2023-01-19T12:39:58.811Z,22.73
2023-01-19T12:42:28.014Z,22.38
2023-01-19T12:45:09.080Z,20.70
2023-01-19T12:47:39.978Z,20.05
2023-01-19T12:50:19.026Z,26.50
2023-01-19T12:52:56.881Z,21.73
2023-01-19T12:55:31.049Z,23.55
2023-01-19T12:58:02.773Z,22.80
2023-01-19T13:00:36.919Z,20.83
2023-01-19T13:03:27.227Z,24.70
2023-01-19T13:05:57.356Z,22.63
2023-01-19T13:08:29.724Z,19.40
2023-01-19T13:11:23.808Z,22.65
2023-01-19T13:14:36.099Z,23.50
2023-01-19T13:17:34.008Z,22.83
2023-01-19T13:20:18.570Z,16.90
2023-01-19T13:23:19.593Z,22.95
2023-01-19T13:26:04.950Z,23.50
2023-01-19T13:28:38.493Z,14.32
2023-01-19T13:31:07.244Z,22.92
2023-01-19T13:33:41.310Z,31.02
2023-01-19T13:36:26.527Z,22.70
2023-01-19T13:38:58.680Z,17.30
2023-01-19T13:41:31.326Z,18.63
2023-01-19T13:44:08.078Z,14.60
2023-01-19T13:46:38.500Z,17.95
2023-01-19T13:49:16.580Z,17.05
2023-01-19T13:51:44.562Z,17.60
2023-01-19T13:54:17.318Z,13.05
2023-01-19T13:56:50.277Z,18.85
2023-01-19T13:59:18.513Z,21.55
2023-01-19T14:01:47.573Z,21.10
2023-01-19T14:04:30.099Z,16.52
2023-01-19T14:07:05.201Z,15.70
2023-01-19T14:09:33.381Z,15.85
2023-01-19T14:12:17.423Z,18.33
2023-01-19T14:14:48.165Z,16.60
2023-01-19T14:17:24.789Z,21.58
2023-01-19T14:19:54.323Z,15.40
2023-01-19T14:22:22.522Z,16.77
2023-01-19T14:24:50.408Z,16.73
2023-01-19T14:27:22.687Z,18.13
2023-01-19T14:29:53.712Z,19.52
2023-01-19T14:32:23.582Z,15.30
2023-01-19T14:34:53.925Z,16.25
2023-01-19T14:37:27.705Z,14.93
2023-01-19T14:40:00.142Z,20.85
2023-01-19T14:42:32.644Z,14.43
2023-01-19T14:45:02.941Z,15.00
2023-01-19T14:47:38.290Z,18.08
2023-01-19T14:50:18.987Z,13.55
2023-01-19T14:52:53.741Z,17.50
2023-01-19T14:55:25.066Z,15.88
2023-01-19T14:57:55.544Z,17.80
2023-01-19T15:00:24.002Z,16.35
2023-01-19T15:02:52.469Z,17.10
2023-01-19T15:05:21.095Z,19.42
2023-01-19T15:07:49.125Z,15.25
2023-01-19T15:10:20.624Z,17.00
2023-01-19T15:12:49.201Z,18.88
2023-01-19T15:15:27.659Z,23.67
2023-01-19T15:17:56.261Z,25.90
2023-01-19T15:20:24.810Z,25.55
2023-01-19T15:22:52.789Z,27.27
2023-01-19T15:25:22.609Z,15.15
2023-01-19T15:27:50.672Z,14.98
2023-01-19T15:30:23.799Z,21.13
2023-01-19T15:32:52.040Z,10.10
2023-01-19T15:35:21.726Z,16.52
2023-01-19T15:37:53.682Z,17.92
2023-01-19T15:40:23.233Z,19.33
2023-01-19T15:42:52.798Z,20.50
2023-01-19T15:45:33.146Z,20.70
2023-01-19T15:48:02.800Z,19.63
2023-01-19T15:50:31.196Z,15.82
2023-01-19T15:52:59.140Z,12.88
2023-01-19T15:55:27.321Z,12.18
2023-01-19T15:57:58.421Z,13.77
2023-01-19T16:00:27.912Z,14.35
2023-01-19T16:02:55.954Z,11.88
2023-01-19T16:05:30.578Z,10.88
2023-01-19T16:08:05.895Z,14.45
2023-01-19T16:10:36.003Z,13.85
2023-01-19T16:13:05.074Z,11.77
2023-01-19T16:15:36.035Z,11.73
2023-01-19T16:18:04.657Z,10.48
2023-01-19T16:20:33.060Z,14.93
2023-01-19T16:23:16.250Z,13.75
2023-01-19T16:25:44.298Z,15.38
2023-01-19T16:28:12.233Z,10.27
2023-01-19T16:30:41.553Z,14.82
2023-01-19T16:33:13.797Z,16.15
2023-01-19T16:35:41.703Z,13.35
2023-01-19T16:38:10.133Z,24.70
2023-01-19T16:40:38.387Z,24.13
2023-01-19T16:43:06.323Z,25.88
2023-01-19T16:45:34.304Z,33.85
2023-01-19T16:48:03.591Z,25.67
2023-01-19T16:50:31.511Z,24.92
2023-01-19T16:53:00.054Z,14.65
2023-01-19T16:55:28.038Z,12.07
2023-01-19T16:57:56.576Z,9.50
2023-01-19T17:00:24.692Z,15.23
2023-01-19T17:02:52.724Z,5.55
2023-01-19T17:05:22.255Z,13.00
2023-01-19T17:07:53.066Z,13.27
2023-01-19T17:10:21.133Z,14.88
2023-01-19T17:12:49.066Z,13.27
2023-01-19T17:15:17.053Z,7.60
2023-01-19T17:17:44.948Z,10.85
2023-01-19T17:20:13.788Z,11.93
2023-01-19T17:22:43.282Z,14.93
2023-01-19T17:25:11.834Z,13.30
2023-01-19T17:27:40.242Z,11.20
2023-01-19T17:30:09.350Z,15.02
2023-01-19T17:32:38.955Z,16.30
2023-01-19T17:35:07.549Z,15.43
2023-01-19T17:37:35.479Z,14.57
2023-01-19T17:40:05.281Z,14.27
2023-01-19T17:42:33.209Z,15.70
2023-01-19T17:45:01.251Z,17.08
2023-01-19T17:47:29.191Z,15.30
2023-01-19T17:49:59.274Z,19.30
2023-01-19T17:52:27.257Z,22.40
2023-01-19T17:54:55.221Z,21.98
2023-01-19T17:57:24.458Z,17.75
2023-01-19T17:59:52.403Z,22.13
2023-01-19T18:02:24.237Z,23.45
2023-01-19T18:04:56.235Z,17.75
2023-01-19T18:07:24.187Z,21.83
2023-01-19T18:09:55.068Z,16.63
2023-01-19T18:12:24.800Z,13.10
2023-01-19T18:14:52.729Z,13.93
2023-01-19T18:17:20.827Z,12.20
2023-01-19T18:19:49.010Z,21.02
2023-01-19T18:22:16.943Z,14.60
2023-01-19T18:24:45.640Z,18.08
2023-01-19T18:27:13.605Z,16.50
2023-01-19T18:29:43.066Z,21.73
2023-01-19T18:32:11.689Z,19.08
2023-01-19T18:34:39.962Z,18.35
2023-01-19T18:37:08.001Z,18.25
2023-01-19T18:39:36.506Z,19.85
2023-01-19T18:42:04.603Z,22.42
2023-01-19T18:44:32.509Z,19.42
2023-01-19T18:47:01.792Z,33.45
2023-01-19T18:49:29.696Z,33.40
2023-01-19T18:51:57.731Z,36.55
2023-01-19T18:54:25.728Z,33.88
2023-01-19T18:56:53.635Z,34.65
2023-01-19T18:59:21.575Z,25.70
2023-01-19T19:01:49.771Z,25.38
2023-01-19T19:04:19.134Z,22.85
2023-01-19T19:06:47.093Z,22.83
2023-01-19T19:09:15.025Z,30.83
2023-01-19T19:11:43.387Z,23.73
2023-01-19T19:14:11.765Z,21.95
2023-01-19T19:16:40.129Z,24.48
2023-01-19T19:19:08.459Z,24.80
2023-01-19T19:21:37.719Z,29.92
2023-01-19T19:24:06.575Z,29.73
2023-01-19T19:26:34.726Z,25.33
2023-01-19T19:29:03.364Z,22.75
2023-01-19T19:31:31.671Z,22.60
2023-01-19T19:34:00.270Z,15.43
2023-01-19T19:36:32.131Z,21.05
2023-01-19T19:39:01.536Z,20.77
2023-01-19T19:41:29.840Z,15.38
2023-01-19T19:43:57.812Z,20.15
2023-01-19T19:46:27.427Z,24.80
2023-01-19T19:48:55.792Z,14.07
2023-01-19T19:51:26.924Z,23.77
2023-01-19T19:53:55.955Z,17.90
2023-01-19T19:56:26.154Z,29.17
2023-01-19T19:58:56.077Z,21.45
2023-01-19T20:01:28.587Z,23.27
2023-01-19T20:03:59.895Z,16.63
2023-01-19T20:06:28.494Z,20.00
2023-01-19T20:08:58.021Z,29.60
2023-01-19T20:11:29.159Z,23.30
2023-01-19T20:13:57.467Z,20.70
2023-01-19T20:16:26.125Z,19.52
2023-01-19T20:18:55.028Z,25.48
2023-01-19T20:21:24.513Z,23.13
2023-01-19T20:23:54.128Z,27.95
2023-01-19T20:26:25.269Z,22.70
2023-01-19T20:28:55.294Z,25.48
2023-01-19T20:31:25.214Z,25.80
2023-01-19T20:33:54.543Z,22.90
2023-01-19T20:36:24.369Z,25.38
2023-01-19T20:38:53.077Z,20.85
2023-01-19T20:41:22.256Z,27.52
2023-01-19T20:43:50.280Z,24.90
2023-01-19T20:46:19.927Z,23.52
2023-01-19T20:48:52.787Z,18.65
2023-01-19T20:51:22.985Z,25.55
2023-01-19T20:53:51.231Z,19.55
2023-01-19T20:56:19.406Z,20.55
2023-01-19T20:58:47.356Z,26.98
2023-01-19T21:01:20.126Z,18.70
2023-01-19T21:03:48.486Z,20.10
2023-01-19T21:06:17.139Z,25.08
2023-01-19T21:08:45.557Z,19.35
2023-01-19T21:11:18.591Z,27.58
2023-01-19T21:13:46.659Z,23.05
2023-01-19T21:16:14.905Z,23.13
2023-01-19T21:18:44.299Z,28.08
2023-01-19T21:21:28.997Z,21.42
2023-01-19T21:23:57.868Z,23.27
2023-01-19T21:26:25.893Z,20.35
2023-01-19T21:28:53.852Z,27.40
2023-01-19T21:31:26.378Z,24.08
2023-01-19T21:33:57.286Z,25.30
2023-01-19T21:36:26.926Z,32.03
2023-01-19T21:38:59.987Z,28.70
2023-01-19T21:41:32.128Z,23.75
2023-01-19T21:44:01.328Z,34.58
2023-01-19T21:46:30.395Z,24.20
2023-01-19T21:49:01.256Z,18.83
2023-01-19T21:51:29.468Z,27.02
2023-01-19T21:53:59.498Z,27.27
2023-01-19T21:56:28.239Z,27.10
2023-01-19T21:58:57.087Z,26.95
2023-01-19T22:01:25.668Z,20.52
2023-01-19T22:03:55.146Z,27.45
2023-01-19T22:06:25.076Z,22.10
2023-01-19T22:08:53.046Z,29.10
2023-01-19T22:11:22.309Z,22.08
2023-01-19T22:13:50.284Z,21.77
2023-01-19T22:16:19.658Z,20.77
2023-01-19T22:18:51.368Z,19.00
2023-01-19T22:21:20.896Z,33.55
2023-01-19T22:23:53.627Z,27.92
2023-01-19T22:26:22.157Z,30.70
2023-01-19T22:28:54.103Z,20.70
2023-01-19T22:31:22.318Z,19.20
2023-01-19T22:33:50.922Z,22.30
2023-01-19T22:36:20.461Z,15.70
2023-01-19T22:38:54.708Z,14.88
2023-01-19T22:41:25.454Z,11.63
2023-01-19T22:43:55.385Z,16.70
2023-01-19T22:46:24.981Z,17.20
2023-01-19T22:48:53.846Z,17.55
2023-01-19T22:51:22.597Z,15.93
2023-01-19T22:53:51.962Z,16.17
2023-01-19T22:56:22.114Z,14.73
2023-01-19T22:58:50.965Z,15.30
2023-01-19T23:01:23.802Z,17.42
2023-01-19T23:03:52.470Z,23.45
2023-01-19T23:06:22.888Z,22.40
2023-01-19T23:08:52.633Z,19.77
2023-01-19T23:11:22.238Z,22.15
2023-01-19T23:13:51.075Z,23.55
2023-01-19T23:16:19.464Z,20.30
2023-01-19T23:18:48.098Z,19.40
2023-01-19T23:21:17.761Z,23.73
2023-01-19T23:23:46.633Z,18.17
2023-01-19T23:26:17.552Z,24.23
2023-01-19T23:28:46.390Z,20.95
2023-01-19T23:31:17.418Z,23.75
2023-01-19T23:33:45.672Z,23.60
2023-01-19T23:36:14.254Z,20.77
2023-01-19T23:38:43.090Z,18.63
2023-01-19T23:41:11.018Z,23.65
2023-01-19T23:43:40.263Z,19.95
2023-01-19T23:46:10.243Z,23.25
2023-01-19T23:48:38.898Z,26.00
2023-01-19T23:51:08.020Z,19.50
2023-01-19T23:53:36.657Z,20.67
2023-01-19T23:56:12.727Z,25.10
2023-01-19T23:58:42.296Z,19.20
